sensor_id;sensor_type;location;lat;lon;timestamp;temperature;humidity
14192;DHT22;7177;48.572;7.838;2023-05-10T00:00:34;13.90;99.90
14192;DHT22;7177;48.572;7.838;2023-05-10T00:02:59;13.80;99.90
14192;DHT22;7177;48.572;7.838;2023-05-10T00:05:25;13.90;99.90
14192;DHT22;7177;48.572;7.838;2023-05-10T00:07:50;13.80;99.90
14192;DHT22;7177;48.572;7.838;2023-05-10T00:10:16;13.80;99.90
14192;DHT22;7177;48.572;7.838;2023-05-10T00:12:42;13.70;99.90
14192;DHT22;7177;48.572;7.838;2023-05-10T00:15:08;13.70;99.90
14192;DHT22;7177;48.572;7.838;2023-05-10T00:17:34;13.70;99.90
14192;DHT22;7177;48.572;7.838;2023-05-10T00:19:59;13.80;99.90
14192;DHT22;7177;48.572;7.838;2023-05-10T00:22:25;13.80;99.90
14192;DHT22;7177;48.572;7.838;2023-05-10T00:24:51;13.90;99.90
14192;DHT22;7177;48.572;7.838;2023-05-10T00:27:16;13.80;99.90
14192;DHT22;7177;48.572;7.838;2023-05-10T00:32:08;13.80;99.90
14192;DHT22;7177;48.572;7.838;2023-05-10T00:34:33;13.80;99.90
14192;DHT22;7177;48.572;7.838;2023-05-10T00:36:59;13.80;99.90
14192;DHT22;7177;48.572;7.838;2023-05-10T00:39:24;13.80;99.90
14192;DHT22;7177;48.572;7.838;2023-05-10T00:41:51;13.80;99.90
14192;DHT22;7177;48.572;7.838;2023-05-10T00:44:17;13.90;99.90
14192;DHT22;7177;48.572;7.838;2023-05-10T00:46:43;13.90;99.90
14192;DHT22;7177;48.572;7.838;2023-05-10T00:49:09;13.90;99.90
14192;DHT22;7177;48.572;7.838;2023-05-10T00:51:35;13.90;99.90
14192;DHT22;7177;48.572;7.838;2023-05-10T00:54:02;13.90;99.90
14192;DHT22;7177;48.572;7.838;2023-05-10T00:56:28;13.80;99.90
14192;DHT22;7177;48.572;7.838;2023-05-10T00:58:55;13.90;99.90
14192;DHT22;7177;48.572;7.838;2023-05-10T01:01:21;13.90;99.90
14192;DHT22;7177;48.572;7.838;2023-05-10T01:03:46;13.80;99.90
14192;DHT22;7177;48.572;7.838;2023-05-10T01:06:12;13.90;99.90
14192;DHT22;7177;48.572;7.838;2023-05-10T01:08:38;13.80;99.90
14192;DHT22;7177;48.572;7.838;2023-05-10T01:11:04;13.80;99.90
14192;DHT22;7177;48.572;7.838;2023-05-10T01:13:39;13.90;99.90
14192;DHT22;7177;48.572;7.838;2023-05-10T01:16:06;13.80;99.90
14192;DHT22;7177;48.572;7.838;2023-05-10T01:18:38;13.80;99.90
14192;DHT22;7177;48.572;7.838;2023-05-10T01:27:02;13.80;99.90
14192;DHT22;7177;48.572;7.838;2023-05-10T01:32:33;13.70;99.90
14192;DHT22;7177;48.572;7.838;2023-05-10T01:35:06;13.70;99.90
14192;DHT22;7177;48.572;7.838;2023-05-10T01:42:47;13.70;99.90
14192;DHT22;7177;48.572;7.838;2023-05-10T01:45:59;13.70;99.90
14192;DHT22;7177;48.572;7.838;2023-05-10T01:48:08;13.70;99.90
14192;DHT22;7177;48.572;7.838;2023-05-10T01:50:36;13.70;99.90
14192;DHT22;7177;48.572;7.838;2023-05-10T01:53:06;13.70;99.90
14192;DHT22;7177;48.572;7.838;2023-05-10T01:55:35;13.70;99.90
14192;DHT22;7177;48.572;7.838;2023-05-10T01:58:08;13.80;99.90
14192;DHT22;7177;48.572;7.838;2023-05-10T02:00:35;13.80;99.90
14192;DHT22;7177;48.572;7.838;2023-05-10T02:03:05;13.70;99.90
14192;DHT22;7177;48.572;7.838;2023-05-10T02:05:32;13.70;99.90
14192;DHT22;7177;48.572;7.838;2023-05-10T02:07:59;13.60;99.90
14192;DHT22;7177;48.572;7.838;2023-05-10T02:10:27;13.60;99.90
14192;DHT22;7177;48.572;7.838;2023-05-10T02:12:54;13.60;99.90
14192;DHT22;7177;48.572;7.838;2023-05-10T02:15:24;13.60;99.90
14192;DHT22;7177;48.572;7.838;2023-05-10T02:17:53;13.60;99.90
14192;DHT22;7177;48.572;7.838;2023-05-10T02:20:20;13.60;99.90
14192;DHT22;7177;48.572;7.838;2023-05-10T02:22:49;13.60;99.90
14192;DHT22;7177;48.572;7.838;2023-05-10T02:25:17;13.70;99.90
14192;DHT22;7177;48.572;7.838;2023-05-10T02:27:44;13.70;99.90
14192;DHT22;7177;48.572;7.838;2023-05-10T02:32:38;13.70;99.90
14192;DHT22;7177;48.572;7.838;2023-05-10T02:35:04;13.70;99.90
14192;DHT22;7177;48.572;7.838;2023-05-10T02:37:30;13.70;99.90
14192;DHT22;7177;48.572;7.838;2023-05-10T02:39:58;13.70;99.90
14192;DHT22;7177;48.572;7.838;2023-05-10T02:42:27;13.70;99.90
14192;DHT22;7177;48.572;7.838;2023-05-10T02:44:59;13.70;99.90
14192;DHT22;7177;48.572;7.838;2023-05-10T02:47:25;13.70;99.90
14192;DHT22;7177;48.572;7.838;2023-05-10T02:49:51;13.70;99.90
14192;DHT22;7177;48.572;7.838;2023-05-10T02:52:23;13.70;99.90
14192;DHT22;7177;48.572;7.838;2023-05-10T02:54:55;13.70;99.90
14192;DHT22;7177;48.572;7.838;2023-05-10T02:57:33;13.70;99.90
14192;DHT22;7177;48.572;7.838;2023-05-10T02:59:59;13.70;99.90
14192;DHT22;7177;48.572;7.838;2023-05-10T03:02:25;13.70;99.90
14192;DHT22;7177;48.572;7.838;2023-05-10T03:04:51;13.70;99.90
14192;DHT22;7177;48.572;7.838;2023-05-10T03:07:17;13.70;99.90
14192;DHT22;7177;48.572;7.838;2023-05-10T03:09:47;13.70;99.90
14192;DHT22;7177;48.572;7.838;2023-05-10T03:12:20;13.70;99.90
14192;DHT22;7177;48.572;7.838;2023-05-10T03:14:49;13.60;99.90
14192;DHT22;7177;48.572;7.838;2023-05-10T03:17:25;13.60;99.90
14192;DHT22;7177;48.572;7.838;2023-05-10T03:19:56;13.50;99.90
14192;DHT22;7177;48.572;7.838;2023-05-10T03:22:36;13.50;99.90
14192;DHT22;7177;48.572;7.838;2023-05-10T03:25:06;13.50;99.90
14192;DHT22;7177;48.572;7.838;2023-05-10T03:27:32;13.50;99.90
14192;DHT22;7177;48.572;7.838;2023-05-10T03:29:59;13.50;99.90
14192;DHT22;7177;48.572;7.838;2023-05-10T03:32:26;13.50;99.90
14192;DHT22;7177;48.572;7.838;2023-05-10T03:34:53;13.50;99.90
14192;DHT22;7177;48.572;7.838;2023-05-10T03:37:19;13.50;99.90
14192;DHT22;7177;48.572;7.838;2023-05-10T03:39:45;13.50;99.90
14192;DHT22;7177;48.572;7.838;2023-05-10T03:42:10;13.50;99.90
14192;DHT22;7177;48.572;7.838;2023-05-10T03:44:38;13.50;99.90
14192;DHT22;7177;48.572;7.838;2023-05-10T03:47:03;13.50;99.90
14192;DHT22;7177;48.572;7.838;2023-05-10T03:49:29;13.40;99.90
14192;DHT22;7177;48.572;7.838;2023-05-10T03:51:54;13.40;99.90
14192;DHT22;7177;48.572;7.838;2023-05-10T03:54:20;13.40;99.90
14192;DHT22;7177;48.572;7.838;2023-05-10T03:56:45;13.40;99.90
14192;DHT22;7177;48.572;7.838;2023-05-10T03:59:13;13.40;99.90
14192;DHT22;7177;48.572;7.838;2023-05-10T04:01:38;13.40;99.90
14192;DHT22;7177;48.572;7.838;2023-05-10T04:04:04;13.30;99.90
14192;DHT22;7177;48.572;7.838;2023-05-10T04:06:29;13.30;99.90
14192;DHT22;7177;48.572;7.838;2023-05-10T04:08:55;13.20;99.90
14192;DHT22;7177;48.572;7.838;2023-05-10T04:11:21;13.20;99.90
14192;DHT22;7177;48.572;7.838;2023-05-10T04:13:47;13.20;99.90
14192;DHT22;7177;48.572;7.838;2023-05-10T04:16:13;13.20;99.90
14192;DHT22;7177;48.572;7.838;2023-05-10T04:18:38;13.20;99.90
14192;DHT22;7177;48.572;7.838;2023-05-10T04:21:10;13.20;99.90
14192;DHT22;7177;48.572;7.838;2023-05-10T04:23:36;13.20;99.90
14192;DHT22;7177;48.572;7.838;2023-05-10T04:26:02;13.20;99.90
14192;DHT22;7177;48.572;7.838;2023-05-10T04:28:27;13.20;99.90
14192;DHT22;7177;48.572;7.838;2023-05-10T04:30:53;13.20;99.90
14192;DHT22;7177;48.572;7.838;2023-05-10T04:33:18;13.20;99.90
14192;DHT22;7177;48.572;7.838;2023-05-10T04:35:44;13.30;99.90
14192;DHT22;7177;48.572;7.838;2023-05-10T04:38:10;13.30;99.90
14192;DHT22;7177;48.572;7.838;2023-05-10T04:40:36;13.30;99.90
14192;DHT22;7177;48.572;7.838;2023-05-10T04:43:01;13.30;99.90
14192;DHT22;7177;48.572;7.838;2023-05-10T04:45:27;13.40;99.90
14192;DHT22;7177;48.572;7.838;2023-05-10T04:47:52;13.40;99.90
14192;DHT22;7177;48.572;7.838;2023-05-10T04:50:17;13.40;99.90
14192;DHT22;7177;48.572;7.838;2023-05-10T04:52:43;13.60;99.90
14192;DHT22;7177;48.572;7.838;2023-05-10T04:55:09;13.80;99.90
14192;DHT22;7177;48.572;7.838;2023-05-10T04:57:35;13.90;99.90
14192;DHT22;7177;48.572;7.838;2023-05-10T05:00:00;13.90;99.90
14192;DHT22;7177;48.572;7.838;2023-05-10T05:02:26;13.90;99.90
14192;DHT22;7177;48.572;7.838;2023-05-10T05:04:51;13.70;99.90
14192;DHT22;7177;48.572;7.838;2023-05-10T05:07:17;13.60;99.90
14192;DHT22;7177;48.572;7.838;2023-05-10T05:09:42;13.50;99.90
14192;DHT22;7177;48.572;7.838;2023-05-10T05:12:08;13.40;99.90
14192;DHT22;7177;48.572;7.838;2023-05-10T05:14:33;13.30;99.90
14192;DHT22;7177;48.572;7.838;2023-05-10T05:16:59;13.30;99.90
14192;DHT22;7177;48.572;7.838;2023-05-10T05:19:24;13.30;99.90
14192;DHT22;7177;48.572;7.838;2023-05-10T05:21:50;13.30;99.90
14192;DHT22;7177;48.572;7.838;2023-05-10T05:24:15;13.30;99.90
14192;DHT22;7177;48.572;7.838;2023-05-10T05:26:41;13.40;99.90
14192;DHT22;7177;48.572;7.838;2023-05-10T05:29:07;13.40;99.90
14192;DHT22;7177;48.572;7.838;2023-05-10T05:31:32;13.40;99.90
14192;DHT22;7177;48.572;7.838;2023-05-10T05:33:57;13.40;99.90
14192;DHT22;7177;48.572;7.838;2023-05-10T05:36:23;13.50;99.90
14192;DHT22;7177;48.572;7.838;2023-05-10T05:38:49;13.50;99.90
14192;DHT22;7177;48.572;7.838;2023-05-10T05:41:14;13.40;99.90
14192;DHT22;7177;48.572;7.838;2023-05-10T05:43:40;13.30;99.90
14192;DHT22;7177;48.572;7.838;2023-05-10T05:46:05;13.30;99.90
14192;DHT22;7177;48.572;7.838;2023-05-10T05:48:31;13.30;99.90
14192;DHT22;7177;48.572;7.838;2023-05-10T05:50:57;13.30;99.90
14192;DHT22;7177;48.572;7.838;2023-05-10T05:53:23;13.30;99.90
14192;DHT22;7177;48.572;7.838;2023-05-10T05:55:56;13.30;99.90
14192;DHT22;7177;48.572;7.838;2023-05-10T05:58:22;13.30;99.90
14192;DHT22;7177;48.572;7.838;2023-05-10T06:00:48;13.40;99.90
14192;DHT22;7177;48.572;7.838;2023-05-10T06:03:13;13.40;99.90
14192;DHT22;7177;48.572;7.838;2023-05-10T06:05:39;13.30;99.90
14192;DHT22;7177;48.572;7.838;2023-05-10T06:08:04;13.40;99.90
14192;DHT22;7177;48.572;7.838;2023-05-10T06:10:30;13.40;99.90
14192;DHT22;7177;48.572;7.838;2023-05-10T06:12:56;13.40;99.90
14192;DHT22;7177;48.572;7.838;2023-05-10T06:15:21;13.40;99.90
14192;DHT22;7177;48.572;7.838;2023-05-10T06:17:47;13.40;99.90
14192;DHT22;7177;48.572;7.838;2023-05-10T06:20:15;13.50;99.90
14192;DHT22;7177;48.572;7.838;2023-05-10T06:22:41;13.50;99.90
14192;DHT22;7177;48.572;7.838;2023-05-10T06:25:07;13.50;99.90
14192;DHT22;7177;48.572;7.838;2023-05-10T06:27:32;13.60;99.90
14192;DHT22;7177;48.572;7.838;2023-05-10T06:29:58;13.60;99.90
14192;DHT22;7177;48.572;7.838;2023-05-10T06:32:24;13.50;99.90
14192;DHT22;7177;48.572;7.838;2023-05-10T06:34:49;13.60;99.90
14192;DHT22;7177;48.572;7.838;2023-05-10T06:37:15;13.60;99.90
14192;DHT22;7177;48.572;7.838;2023-05-10T06:39:40;13.60;99.90
14192;DHT22;7177;48.572;7.838;2023-05-10T06:42:06;13.60;99.90
14192;DHT22;7177;48.572;7.838;2023-05-10T06:44:31;13.60;99.90
14192;DHT22;7177;48.572;7.838;2023-05-10T06:46:57;13.60;99.90
14192;DHT22;7177;48.572;7.838;2023-05-10T06:49:22;13.60;99.90
14192;DHT22;7177;48.572;7.838;2023-05-10T06:51:48;13.50;99.90
14192;DHT22;7177;48.572;7.838;2023-05-10T06:54:13;13.40;99.90
14192;DHT22;7177;48.572;7.838;2023-05-10T06:56:39;13.40;99.90
14192;DHT22;7177;48.572;7.838;2023-05-10T06:59:04;13.50;99.90
14192;DHT22;7177;48.572;7.838;2023-05-10T07:01:30;13.50;99.90
14192;DHT22;7177;48.572;7.838;2023-05-10T07:03:55;13.60;99.90
14192;DHT22;7177;48.572;7.838;2023-05-10T07:06:21;13.60;99.90
14192;DHT22;7177;48.572;7.838;2023-05-10T07:08:46;13.70;99.90
14192;DHT22;7177;48.572;7.838;2023-05-10T07:11:12;13.80;99.90
14192;DHT22;7177;48.572;7.838;2023-05-10T07:13:37;13.80;99.90
14192;DHT22;7177;48.572;7.838;2023-05-10T07:16:06;13.90;99.90
14192;DHT22;7177;48.572;7.838;2023-05-10T07:18:33;14.10;99.90
14192;DHT22;7177;48.572;7.838;2023-05-10T07:20:59;14.20;99.90
14192;DHT22;7177;48.572;7.838;2023-05-10T07:23:24;14.40;99.90
14192;DHT22;7177;48.572;7.838;2023-05-10T07:25:51;14.60;99.90
14192;DHT22;7177;48.572;7.838;2023-05-10T07:28:19;15.30;99.90
14192;DHT22;7177;48.572;7.838;2023-05-10T07:30:45;14.80;99.90
14192;DHT22;7177;48.572;7.838;2023-05-10T07:33:13;14.90;99.90
14192;DHT22;7177;48.572;7.838;2023-05-10T07:35:39;15.10;99.90
14192;DHT22;7177;48.572;7.838;2023-05-10T07:38:05;15.30;99.90
14192;DHT22;7177;48.572;7.838;2023-05-10T07:40:30;15.50;99.90
14192;DHT22;7177;48.572;7.838;2023-05-10T07:42:56;15.50;99.90
14192;DHT22;7177;48.572;7.838;2023-05-10T07:45:22;15.50;99.90
14192;DHT22;7177;48.572;7.838;2023-05-10T07:47:48;15.50;99.90
14192;DHT22;7177;48.572;7.838;2023-05-10T07:50:14;15.50;99.90
14192;DHT22;7177;48.572;7.838;2023-05-10T07:52:39;15.70;99.90
14192;DHT22;7177;48.572;7.838;2023-05-10T07:55:05;15.80;99.90
14192;DHT22;7177;48.572;7.838;2023-05-10T07:57:33;15.80;99.90
14192;DHT22;7177;48.572;7.838;2023-05-10T07:59:58;16.00;99.90
14192;DHT22;7177;48.572;7.838;2023-05-10T08:02:24;15.80;99.90
14192;DHT22;7177;48.572;7.838;2023-05-10T08:04:49;15.80;99.90
14192;DHT22;7177;48.572;7.838;2023-05-10T08:07:15;15.80;99.90
14192;DHT22;7177;48.572;7.838;2023-05-10T08:09:40;15.60;99.90
14192;DHT22;7177;48.572;7.838;2023-05-10T08:12:06;15.40;99.90
14192;DHT22;7177;48.572;7.838;2023-05-10T08:14:31;15.20;99.90
14192;DHT22;7177;48.572;7.838;2023-05-10T08:16:57;15.00;99.90
14192;DHT22;7177;48.572;7.838;2023-05-10T08:19:22;14.80;99.90
14192;DHT22;7177;48.572;7.838;2023-05-10T08:21:49;14.60;99.90
14192;DHT22;7177;48.572;7.838;2023-05-10T08:24:14;14.40;99.90
14192;DHT22;7177;48.572;7.838;2023-05-10T08:26:40;14.40;99.90
14192;DHT22;7177;48.572;7.838;2023-05-10T08:29:05;14.50;99.90
14192;DHT22;7177;48.572;7.838;2023-05-10T08:31:31;14.60;99.90
14192;DHT22;7177;48.572;7.838;2023-05-10T08:33:57;14.60;99.90
14192;DHT22;7177;48.572;7.838;2023-05-10T08:36:22;14.70;99.90
14192;DHT22;7177;48.572;7.838;2023-05-10T08:38:53;14.80;99.90
14192;DHT22;7177;48.572;7.838;2023-05-10T08:41:22;14.80;99.90
14192;DHT22;7177;48.572;7.838;2023-05-10T08:43:50;14.80;99.90
14192;DHT22;7177;48.572;7.838;2023-05-10T08:46:17;14.90;99.90
14192;DHT22;7177;48.572;7.838;2023-05-10T08:48:44;15.00;99.90
14192;DHT22;7177;48.572;7.838;2023-05-10T08:51:13;15.10;99.90
14192;DHT22;7177;48.572;7.838;2023-05-10T08:53:39;15.30;99.90
14192;DHT22;7177;48.572;7.838;2023-05-10T08:56:05;15.40;99.90
14192;DHT22;7177;48.572;7.838;2023-05-10T08:58:31;15.50;99.90
14192;DHT22;7177;48.572;7.838;2023-05-10T09:00:57;15.60;99.90
14192;DHT22;7177;48.572;7.838;2023-05-10T09:03:23;15.80;99.90
14192;DHT22;7177;48.572;7.838;2023-05-10T09:05:49;16.00;99.90
14192;DHT22;7177;48.572;7.838;2023-05-10T09:08:15;16.30;99.90
14192;DHT22;7177;48.572;7.838;2023-05-10T09:10:45;16.40;99.90
14192;DHT22;7177;48.572;7.838;2023-05-10T09:13:14;16.70;99.90
14192;DHT22;7177;48.572;7.838;2023-05-10T09:15:41;16.80;99.90
14192;DHT22;7177;48.572;7.838;2023-05-10T09:18:06;17.10;99.90
14192;DHT22;7177;48.572;7.838;2023-05-10T09:20:32;17.30;99.90
14192;DHT22;7177;48.572;7.838;2023-05-10T09:22:57;17.30;99.90
14192;DHT22;7177;48.572;7.838;2023-05-10T09:25:23;17.40;99.90
14192;DHT22;7177;48.572;7.838;2023-05-10T09:27:49;17.90;99.90
14192;DHT22;7177;48.572;7.838;2023-05-10T09:30:25;17.90;99.90
14192;DHT22;7177;48.572;7.838;2023-05-10T09:32:51;18.10;99.90
14192;DHT22;7177;48.572;7.838;2023-05-10T09:35:19;18.20;99.90
14192;DHT22;7177;48.572;7.838;2023-05-10T09:37:47;18.40;99.90
14192;DHT22;7177;48.572;7.838;2023-05-10T09:40:18;18.60;99.90
14192;DHT22;7177;48.572;7.838;2023-05-10T09:42:52;19.00;99.90
14192;DHT22;7177;48.572;7.838;2023-05-10T09:45:18;19.10;99.90
14192;DHT22;7177;48.572;7.838;2023-05-10T09:47:43;18.50;99.90
14192;DHT22;7177;48.572;7.838;2023-05-10T09:50:09;18.00;99.90
14192;DHT22;7177;48.572;7.838;2023-05-10T09:55:24;17.80;99.90
14192;DHT22;7177;48.572;7.838;2023-05-10T09:57:59;18.20;99.90
14192;DHT22;7177;48.572;7.838;2023-05-10T10:00:26;18.20;99.90
14192;DHT22;7177;48.572;7.838;2023-05-10T10:02:56;18.10;99.90
14192;DHT22;7177;48.572;7.838;2023-05-10T10:05:36;18.00;99.90
14192;DHT22;7177;48.572;7.838;2023-05-10T10:08:05;17.90;99.90
14192;DHT22;7177;48.572;7.838;2023-05-10T10:10:32;17.80;99.90
14192;DHT22;7177;48.572;7.838;2023-05-10T10:12:58;17.60;99.90
14192;DHT22;7177;48.572;7.838;2023-05-10T10:15:24;17.70;99.90
14192;DHT22;7177;48.572;7.838;2023-05-10T10:17:50;17.60;99.90
14192;DHT22;7177;48.572;7.838;2023-05-10T10:20:17;17.60;99.90
14192;DHT22;7177;48.572;7.838;2023-05-10T10:22:43;17.70;99.90
14192;DHT22;7177;48.572;7.838;2023-05-10T10:25:10;18.20;99.90
14192;DHT22;7177;48.572;7.838;2023-05-10T10:32:59;18.80;99.90
14192;DHT22;7177;48.572;7.838;2023-05-10T10:35:30;18.50;99.90
14192;DHT22;7177;48.572;7.838;2023-05-10T10:37:57;18.20;99.90
14192;DHT22;7177;48.572;7.838;2023-05-10T10:40:24;18.10;99.90
14192;DHT22;7177;48.572;7.838;2023-05-10T10:42:51;17.70;99.90
14192;DHT22;7177;48.572;7.838;2023-05-10T10:45:16;17.50;99.90
14192;DHT22;7177;48.572;7.838;2023-05-10T10:47:42;17.30;99.90
14192;DHT22;7177;48.572;7.838;2023-05-10T10:50:08;17.10;99.90
14192;DHT22;7177;48.572;7.838;2023-05-10T10:55:11;16.80;99.90
14192;DHT22;7177;48.572;7.838;2023-05-10T11:02:55;19.70;99.90
14192;DHT22;7177;48.572;7.838;2023-05-10T11:08:16;21.90;99.90
14192;DHT22;7177;48.572;7.838;2023-05-10T11:13:34;20.60;99.90
14192;DHT22;7177;48.572;7.838;2023-05-10T11:16:23;20.10;99.90
14192;DHT22;7177;48.572;7.838;2023-05-10T11:21:18;20.20;99.90
14192;DHT22;7177;48.572;7.838;2023-05-10T11:23:47;21.00;99.90
14192;DHT22;7177;48.572;7.838;2023-05-10T11:26:13;21.90;99.90
14192;DHT22;7177;48.572;7.838;2023-05-10T11:28:47;22.60;99.70
14192;DHT22;7177;48.572;7.838;2023-05-10T11:31:17;22.80;99.90
14192;DHT22;7177;48.572;7.838;2023-05-10T11:36:16;21.60;99.60
14192;DHT22;7177;48.572;7.838;2023-05-10T11:38:42;21.40;99.90
14192;DHT22;7177;48.572;7.838;2023-05-10T11:41:09;21.10;99.90
14192;DHT22;7177;48.572;7.838;2023-05-10T11:43:35;20.70;99.90
14192;DHT22;7177;48.572;7.838;2023-05-10T11:46:12;20.30;99.90
14192;DHT22;7177;48.572;7.838;2023-05-10T11:48:40;19.80;99.90
14192;DHT22;7177;48.572;7.838;2023-05-10T11:51:09;19.40;99.90
14192;DHT22;7177;48.572;7.838;2023-05-10T11:53:36;19.40;99.90
14192;DHT22;7177;48.572;7.838;2023-05-10T11:56:06;19.10;99.90
14192;DHT22;7177;48.572;7.838;2023-05-10T11:58:32;18.80;99.90
14192;DHT22;7177;48.572;7.838;2023-05-10T12:01:02;18.50;99.90
14192;DHT22;7177;48.572;7.838;2023-05-10T12:03:28;18.30;99.90
14192;DHT22;7177;48.572;7.838;2023-05-10T12:05:55;18.00;99.90
14192;DHT22;7177;48.572;7.838;2023-05-10T12:08:23;17.90;99.90
14192;DHT22;7177;48.572;7.838;2023-05-10T12:10:49;17.80;99.90
14192;DHT22;7177;48.572;7.838;2023-05-10T12:13:15;17.90;99.90
14192;DHT22;7177;48.572;7.838;2023-05-10T12:15:41;18.00;99.90
14192;DHT22;7177;48.572;7.838;2023-05-10T12:18:11;19.00;99.90
14192;DHT22;7177;48.572;7.838;2023-05-10T12:20:37;19.80;99.90
14192;DHT22;7177;48.572;7.838;2023-05-10T12:23:03;19.70;99.90
14192;DHT22;7177;48.572;7.838;2023-05-10T12:25:33;19.80;99.90
14192;DHT22;7177;48.572;7.838;2023-05-10T12:28:02;19.80;99.90
14192;DHT22;7177;48.572;7.838;2023-05-10T12:30:29;19.80;99.90
14192;DHT22;7177;48.572;7.838;2023-05-10T12:33:07;19.50;99.90
14192;DHT22;7177;48.572;7.838;2023-05-10T12:35:33;19.40;99.90
14192;DHT22;7177;48.572;7.838;2023-05-10T12:37:59;19.30;99.90
14192;DHT22;7177;48.572;7.838;2023-05-10T12:40:24;19.10;99.90
14192;DHT22;7177;48.572;7.838;2023-05-10T12:42:50;19.10;99.90
14192;DHT22;7177;48.572;7.838;2023-05-10T12:45:17;19.40;99.90
14192;DHT22;7177;48.572;7.838;2023-05-10T12:47:43;19.60;99.90
14192;DHT22;7177;48.572;7.838;2023-05-10T12:50:09;20.50;99.90
14192;DHT22;7177;48.572;7.838;2023-05-10T12:52:34;21.30;99.90
14192;DHT22;7177;48.572;7.838;2023-05-10T12:55:00;21.60;99.90
14192;DHT22;7177;48.572;7.838;2023-05-10T12:57:26;21.90;99.90
14192;DHT22;7177;48.572;7.838;2023-05-10T12:59:52;22.10;99.90
14192;DHT22;7177;48.572;7.838;2023-05-10T13:02:18;21.60;99.90
14192;DHT22;7177;48.572;7.838;2023-05-10T13:04:44;21.50;99.90
14192;DHT22;7177;48.572;7.838;2023-05-10T13:07:11;21.50;99.90
14192;DHT22;7177;48.572;7.838;2023-05-10T13:09:37;21.50;99.90
14192;DHT22;7177;48.572;7.838;2023-05-10T13:12:02;21.40;99.90
14192;DHT22;7177;48.572;7.838;2023-05-10T13:14:29;21.50;99.90
14192;DHT22;7177;48.572;7.838;2023-05-10T13:16:55;21.50;99.90
14192;DHT22;7177;48.572;7.838;2023-05-10T13:19:20;21.50;99.90
14192;DHT22;7177;48.572;7.838;2023-05-10T13:21:46;21.50;99.90
14192;DHT22;7177;48.572;7.838;2023-05-10T13:24:12;22.00;99.90
14192;DHT22;7177;48.572;7.838;2023-05-10T13:26:42;22.70;99.90
14192;DHT22;7177;48.572;7.838;2023-05-10T13:29:08;22.90;99.90
14192;DHT22;7177;48.572;7.838;2023-05-10T13:31:34;22.40;99.80
14192;DHT22;7177;48.572;7.838;2023-05-10T13:34:00;21.90;99.90
14192;DHT22;7177;48.572;7.838;2023-05-10T13:36:25;21.40;99.90
14192;DHT22;7177;48.572;7.838;2023-05-10T13:38:51;20.80;99.90
14192;DHT22;7177;48.572;7.838;2023-05-10T13:41:17;20.40;99.90
14192;DHT22;7177;48.572;7.838;2023-05-10T13:43:42;19.90;99.90
14192;DHT22;7177;48.572;7.838;2023-05-10T13:46:08;19.60;99.90
14192;DHT22;7177;48.572;7.838;2023-05-10T13:48:33;19.50;99.90
14192;DHT22;7177;48.572;7.838;2023-05-10T13:50:59;19.40;99.90
14192;DHT22;7177;48.572;7.838;2023-05-10T13:53:24;19.10;99.90
14192;DHT22;7177;48.572;7.838;2023-05-10T13:55:50;18.80;99.90
14192;DHT22;7177;48.572;7.838;2023-05-10T13:58:16;18.40;99.90
14192;DHT22;7177;48.572;7.838;2023-05-10T14:00:41;18.10;99.90
14192;DHT22;7177;48.572;7.838;2023-05-10T14:03:07;18.00;99.90
14192;DHT22;7177;48.572;7.838;2023-05-10T14:05:34;17.90;99.90
14192;DHT22;7177;48.572;7.838;2023-05-10T14:08:00;17.90;99.90
14192;DHT22;7177;48.572;7.838;2023-05-10T14:10:25;18.40;99.90
14192;DHT22;7177;48.572;7.838;2023-05-10T14:12:51;19.00;99.90
14192;DHT22;7177;48.572;7.838;2023-05-10T14:15:16;19.90;99.90
14192;DHT22;7177;48.572;7.838;2023-05-10T14:17:42;20.60;99.90
14192;DHT22;7177;48.572;7.838;2023-05-10T14:20:08;20.60;99.90
14192;DHT22;7177;48.572;7.838;2023-05-10T14:22:34;20.30;99.90
14192;DHT22;7177;48.572;7.838;2023-05-10T14:25:00;20.10;99.90
14192;DHT22;7177;48.572;7.838;2023-05-10T14:27:25;20.00;99.90
14192;DHT22;7177;48.572;7.838;2023-05-10T14:29:51;19.90;99.90
14192;DHT22;7177;48.572;7.838;2023-05-10T14:32:17;20.00;99.90
14192;DHT22;7177;48.572;7.838;2023-05-10T14:34:42;20.00;99.90
14192;DHT22;7177;48.572;7.838;2023-05-10T14:37:10;19.90;99.90
14192;DHT22;7177;48.572;7.838;2023-05-10T14:39:36;19.50;99.90
14192;DHT22;7177;48.572;7.838;2023-05-10T14:42:03;19.10;99.90
14192;DHT22;7177;48.572;7.838;2023-05-10T14:44:29;19.00;99.90
14192;DHT22;7177;48.572;7.838;2023-05-10T14:46:54;18.80;99.90
14192;DHT22;7177;48.572;7.838;2023-05-10T14:49:21;18.60;99.90
14192;DHT22;7177;48.572;7.838;2023-05-10T14:51:48;18.20;99.90
14192;DHT22;7177;48.572;7.838;2023-05-10T14:54:13;18.00;99.90
14192;DHT22;7177;48.572;7.838;2023-05-10T14:56:39;17.80;99.90
14192;DHT22;7177;48.572;7.838;2023-05-10T14:59:06;17.70;99.90
14192;DHT22;7177;48.572;7.838;2023-05-10T15:01:32;17.60;99.90
14192;DHT22;7177;48.572;7.838;2023-05-10T15:03:58;17.70;99.90
14192;DHT22;7177;48.572;7.838;2023-05-10T15:06:30;17.90;99.90
14192;DHT22;7177;48.572;7.838;2023-05-10T15:08:56;18.30;99.90
14192;DHT22;7177;48.572;7.838;2023-05-10T15:11:21;18.70;99.90
14192;DHT22;7177;48.572;7.838;2023-05-10T15:13:47;19.00;99.90
14192;DHT22;7177;48.572;7.838;2023-05-10T15:16:12;19.20;99.90
14192;DHT22;7177;48.572;7.838;2023-05-10T15:18:38;19.60;99.90
14192;DHT22;7177;48.572;7.838;2023-05-10T15:21:03;19.70;99.90
14192;DHT22;7177;48.572;7.838;2023-05-10T15:23:29;20.00;99.90
14192;DHT22;7177;48.572;7.838;2023-05-10T15:25:55;20.10;99.90
14192;DHT22;7177;48.572;7.838;2023-05-10T15:28:21;19.90;99.90
14192;DHT22;7177;48.572;7.838;2023-05-10T15:30:46;20.10;99.90
14192;DHT22;7177;48.572;7.838;2023-05-10T15:33:12;20.10;99.90
14192;DHT22;7177;48.572;7.838;2023-05-10T15:35:37;19.90;99.90
14192;DHT22;7177;48.572;7.838;2023-05-10T15:38:05;19.80;99.90
14192;DHT22;7177;48.572;7.838;2023-05-10T15:40:31;19.70;99.90
14192;DHT22;7177;48.572;7.838;2023-05-10T15:42:56;19.70;99.90
14192;DHT22;7177;48.572;7.838;2023-05-10T15:45:22;19.70;99.90
14192;DHT22;7177;48.572;7.838;2023-05-10T15:47:47;19.50;99.90
14192;DHT22;7177;48.572;7.838;2023-05-10T15:50:14;19.10;99.90
14192;DHT22;7177;48.572;7.838;2023-05-10T15:52:40;18.60;99.90
14192;DHT22;7177;48.572;7.838;2023-05-10T15:55:07;18.20;99.90
14192;DHT22;7177;48.572;7.838;2023-05-10T15:57:40;17.90;99.90
14192;DHT22;7177;48.572;7.838;2023-05-10T16:00:07;17.90;99.90
14192;DHT22;7177;48.572;7.838;2023-05-10T16:02:33;18.00;99.90
14192;DHT22;7177;48.572;7.838;2023-05-10T16:04:59;18.10;99.90
14192;DHT22;7177;48.572;7.838;2023-05-10T16:07:25;18.50;99.90
14192;DHT22;7177;48.572;7.838;2023-05-10T16:09:50;18.80;99.90
14192;DHT22;7177;48.572;7.838;2023-05-10T16:12:16;19.20;99.90
14192;DHT22;7177;48.572;7.838;2023-05-10T16:14:41;19.70;99.90
14192;DHT22;7177;48.572;7.838;2023-05-10T16:17:07;19.90;99.90
14192;DHT22;7177;48.572;7.838;2023-05-10T16:19:32;20.10;99.90
14192;DHT22;7177;48.572;7.838;2023-05-10T16:21:58;20.10;99.90
14192;DHT22;7177;48.572;7.838;2023-05-10T16:24:24;20.30;99.90
14192;DHT22;7177;48.572;7.838;2023-05-10T16:26:50;20.40;99.90